Nord Nanami — 3EWR2 — position and weather

sailwx.info

Track history (hours):
 
Tides and Currents Weather Stations Pressure Air Temp Water Temp Dewpoint Dewpoint Depression Visibility Wind Speed Wind Dir Waves Ship Positions

Nord Nanami

Last reported at 2016-May-31 01:09 UTC. Time now 2016-May-31 02:08 UTC.
Position N 37°33' E 004°43'.

Length 180 m; draft 9.7 m.

Type: Cargo ship. MMSI: 373694000.

Date/timePositionNaut miles runAvg speedWind from/ knotsBaromVisibWave heightAir tempDewpointWater temp
2016-May-31 01:09N 37°33' E 004°43'814.4
2016-May-31 00:33N 37°32' E 004°33'1914.3
2016-May-30 23:15N 37°30' E 004°09'1414.3
2016-May-30 22:16N 37°28' E 003°52'22014.8
2016-May-30 07:29N 36°36' W 000°35'22314.8
2016-May-29 16:26N 36°05' W 005°09'1112.0
2016-May-29 15:33N 36°07' W 005°22'1 1.3
2016-May-29 14:33N 36°08' W 005°22'0 0.0
2016-May-29 13:33N 36°08' W 005°22'0 0.0
2016-May-29 12:30N 36°08' W 005°22'0 0.1
2016-May-29 11:33N 36°08' W 005°22'0 0.0
2016-May-29 10:33N 36°08' W 005°22'0 0.0
2016-May-29 09:30N 36°08' W 005°22'0 0.1
2016-May-29 08:33N 36°08' W 005°22'0 0.1
2016-May-29 07:33N 36°08' W 005°22'0 0.1
2016-May-29 06:33N 36°08' W 005°22'3 2.9
2016-May-29 05:33N 36°05' W 005°22'7 7.4
2016-May-29 04:33N 35°58' W 005°25'  
2016-May-26 11:33N 38°42' W 024°09'1313.3
2016-May-26 10:33N 38°44' W 024°26'1313.3
2016-May-26 09:33N 38°45' W 024°43'1413.4
2016-May-26 08:32N 38°49' W 024°59'1412.8
2016-May-26 07:25N 38°53' W 025°17'1112.5
2016-May-26 06:33N 38°56' W 025°30'7712.4
2016-May-26 00:24N 39°16' W 027°06'1112.5
2016-May-25 23:33N 39°19' W 027°19'1312.6
2016-May-25 22:33N 39°24' W 027°33'1212.4
2016-May-25 21:33N 39°29' W 027°48'1212.0
2016-May-25 20:33N 39°33' W 028°03'1212.2
2016-May-25 19:33N 39°38' W 028°18'1312.5
2016-May-25 18:33N 39°42' W 028°33'1212.3
2016-May-25 17:33N 39°46' W 028°48'1212.3
2016-May-25 16:33N 39°50' W 029°03'1212.3
2016-May-25 15:33N 39°54' W 029°18'1412.5
2016-May-25 14:24N 39°59' W 029°36'1112.6
2016-May-25 13:33N 40°02' W 029°49'  
Track history (hours):
 
Tides and Currents Weather Stations Pressure Air Temp Water Temp Dewpoint Dewpoint Depression Visibility Wind Speed Wind Dir Waves Ship Positions

Nord Nanami

Last reported at 2016-May-31 01:09 UTC. Time now 2016-May-31 02:08 UTC.
Position N 37°33' E 004°43'.

Length 180 m; draft 9.7 m.

Type: Cargo ship. MMSI: 373694000.

Date/timePositionNaut miles runAvg speedWind from/ knotsBaromVisibWave heightAir tempDewpointWater temp
2016-May-31 01:09N 37°33' E 004°43'814.4
2016-May-31 00:33N 37°32' E 004°33'1914.3
2016-May-30 23:15N 37°30' E 004°09'1414.3
2016-May-30 22:16N 37°28' E 003°52'22014.8
2016-May-30 07:29N 36°36' W 000°35'22314.8
2016-May-29 16:26N 36°05' W 005°09'1112.0
2016-May-29 15:33N 36°07' W 005°22'1 1.3
2016-May-29 14:33N 36°08' W 005°22'0 0.0
2016-May-29 13:33N 36°08' W 005°22'0 0.0
2016-May-29 12:30N 36°08' W 005°22'0 0.1
2016-May-29 11:33N 36°08' W 005°22'0 0.0
2016-May-29 10:33N 36°08' W 005°22'0 0.0
2016-May-29 09:30N 36°08' W 005°22'0 0.1
2016-May-29 08:33N 36°08' W 005°22'0 0.1
2016-May-29 07:33N 36°08' W 005°22'0 0.1
2016-May-29 06:33N 36°08' W 005°22'3 2.9
2016-May-29 05:33N 36°05' W 005°22'7 7.4
2016-May-29 04:33N 35°58' W 005°25'  
2016-May-26 11:33N 38°42' W 024°09'1313.3
2016-May-26 10:33N 38°44' W 024°26'1313.3
2016-May-26 09:33N 38°45' W 024°43'1413.4
2016-May-26 08:32N 38°49' W 024°59'1412.8
2016-May-26 07:25N 38°53' W 025°17'1112.5
2016-May-26 06:33N 38°56' W 025°30'7712.4
2016-May-26 00:24N 39°16' W 027°06'1112.5
2016-May-25 23:33N 39°19' W 027°19'1312.6
2016-May-25 22:33N 39°24' W 027°33'1212.4
2016-May-25 21:33N 39°29' W 027°48'1212.0
2016-May-25 20:33N 39°33' W 028°03'1212.2
2016-May-25 19:33N 39°38' W 028°18'1312.5
2016-May-25 18:33N 39°42' W 028°33'1212.3
2016-May-25 17:33N 39°46' W 028°48'1212.3
2016-May-25 16:33N 39°50' W 029°03'1212.3
2016-May-25 15:33N 39°54' W 029°18'1412.5
2016-May-25 14:24N 39°59' W 029°36'1112.6
2016-May-25 13:33N 40°02' W 029°49'  

Dump ship's entire track history